Time;durP1;ratioP1;P1;durP2;ratioP2;P2;SDS_P1;SDS_P2;PMS_P1;PMS_P2;Temp;Humidity;BMP_temperature;BMP_pressure;BME280_temperature;BME280_humidity;BME280_pressure;Samples;Min_cycle;Max_cycle;Signal;HPM_P1;HPM_P2
2022/02/15 00:46:00;;;;;;;12.77;3.10;;;8.70;99.90;;;;;;5152226;23;20170;-95
2022/02/15 00:48:10;;;;;;;9.90;2.75;;;8.60;99.90;;;;;;5154352;22;20162;-94
2022/02/15 00:50:57;;;;;;;12.60;3.10;;;8.50;99.90;;;;;;5176482;22;20147;-94
2022/02/15 00:53:59;;;;;;;12.37;2.97;;;8.50;99.90;;;;;;5182910;22;20210;-96
2022/02/15 00:56:57;;;;;;;;;;;;;;;;;;;;;
2022/02/15 01:00:02;;;;;;;13.03;2.93;;;8.70;99.90;;;;;;5188544;22;20227;-95
2022/02/15 01:02:06;;;;;;;11.50;2.77;;;8.40;99.90;;;;;;5177940;23;20147;-95
2022/02/15 01:04:07;;;;;;;10.93;2.67;;;8.50;99.90;;;;;;5154989;23;20178;-95
2022/02/15 01:06:19;;;;;;;9.20;2.60;;;8.50;99.90;;;;;;5152279;23;20601;-95
2022/02/15 01:13:00;;;;;;;;;;;;;;;;;;;;;
2022/02/15 02:23:40;;;;;;;18.20;6.17;;;7.70;99.90;;;;;;5190676;22;20420;-94
2022/02/15 03:27:36;;;;;;;13.10;4.77;;;7.80;99.90;;;;;;5143430;22;20203;-95
2022/02/15 03:30:00;;;;;;;14.63;4.70;;;7.80;99.90;;;;;;5145557;23;20156;-95
2022/02/15 03:32:26;;;;;;;15.00;4.53;;;7.70;99.90;;;;;;5178183;23;20234;-95
2022/02/15 03:35:20;;;;;;;10.33;4.10;;;7.70;99.90;;;;;;5168338;22;20166;-94
2022/02/15 03:49:38;;;;;;;8.73;4.27;;;7.40;99.90;;;;;;5147671;23;20215;-95
2022/02/15 03:52:05;;;;;;;7.70;4.10;;;7.30;99.90;;;;;;5174937;23;20226;-95
2022/02/15 03:54:31;;;;;;;12.00;4.63;;;7.50;99.90;;;;;;5165608;23;20182;-95
2022/02/15 03:57:28;;;;;;;14.87;4.90;;;7.40;99.90;;;;;;5181776;23;20153;-96
2022/02/15 03:59:51;;;;;;;12.40;4.73;;;7.30;99.90;;;;;;5177332;23;20175;-94
2022/02/15 04:02:23;;;;;;;12.60;4.70;;;7.40;99.90;;;;;;5204545;22;20142;-94
2022/02/15 04:06:53;;;;;;;9.50;4.60;;;7.40;99.90;;;;;;5157353;22;20202;-94
2022/02/15 04:09:40;;;;;;;14.77;4.60;;;7.30;99.90;;;;;;5182602;23;20183;-96
2022/02/15 04:12:36;;;;;;;14.67;4.53;;;7.40;99.90;;;;;;5157972;23;20159;-94
2022/02/15 04:18:24;;;;;;;12.37;4.30;;;7.40;99.90;;;;;;5157809;22;20169;-94
2022/02/15 04:20:57;;;;;;;;;;;;;;;;;;;;;
2022/02/15 04:23:50;;;;;;;;;;;;;;;;;;;;;
2022/02/15 04:31:44;;;;;;;9.87;3.73;;;7.30;99.90;;;;;;5104239;22;20151;-95
2022/02/15 04:34:28;;;;;;;19.37;3.80;;;7.20;99.90;;;;;;5150513;23;20160;-96
2022/02/15 04:37:19;;;;;;;15.73;4.53;;;7.20;99.90;;;;;;5174129;23;20151;-94
2022/02/15 04:39:46;;;;;;;19.93;4.90;;;7.30;99.90;;;;;;5165989;23;20189;-94
2022/02/15 04:42:20;;;;;;;13.77;4.47;;;7.30;99.90;;;;;;5180530;22;20143;-94
2022/02/15 04:44:33;;;;;;;15.53;5.50;;;7.40;99.90;;;;;;5177774;22;20280;-94
2022/02/15 04:46:59;;;;;;;17.13;7.03;;;7.50;99.90;;;;;;5176557;23;20585;-96
2022/02/15 04:49:11;;;;;;;16.03;6.23;;;7.40;99.90;;;;;;5168325;22;20155;-95
2022/02/15 04:51:28;;;;;;;;;;;;;;;;;;;;;
2022/02/15 04:54:24;;;;;;;9.57;3.77;;;7.30;99.90;;;;;;5187974;22;20193;-96
2022/02/15 04:57:24;;;;;;;9.87;3.20;;;7.40;99.90;;;;;;5189117;22;20166;-96
2022/02/15 05:05:36;;;;;;;;;;;;;;;;;;;;;
2022/02/15 05:12:05;;;;;;;;;;;;;;;;;;;;;
2022/02/15 05:14:53;;;;;;;12.97;3.90;;;7.10;99.90;;;;;;5011542;23;20179;-96
2022/02/15 05:18:08;;;;;;;11.40;3.90;;;6.90;99.90;;;;;;5016101;23;20187;-96
2022/02/15 05:21:40;;;;;;;18.23;3.70;;;6.70;99.90;;;;;;5014548;23;20206;-96
2022/02/15 05:24:16;;;;;;;14.63;3.03;;;6.80;99.90;;;;;;4920869;23;20233;-96
2022/02/15 05:26:46;;;;;;;8.73;2.73;;;6.80;99.90;;;;;;4989973;23;20215;-95
2022/02/15 05:29:01;;;;;;;12.13;2.90;;;6.90;99.90;;;;;;5015827;23;20155;-96
2022/02/15 05:33:40;;;;;;;12.37;3.10;;;6.90;99.90;;;;;;5150540;22;20210;-94
2022/02/15 05:36:35;;;;;;;6.83;3.10;;;7.10;99.90;;;;;;5154776;23;20163;-95
2022/02/15 05:42:05;;;;;;;8.47;3.10;;;7.10;99.90;;;;;;5104910;23;20220;-94
2022/02/15 05:44:57;;;;;;;9.77;2.63;;;7.30;99.90;;;;;;5080822;23;20173;-94
2022/02/15 05:47:29;;;;;;;11.53;3.00;;;7.20;99.90;;;;;;5032901;23;20229;-94
2022/02/15 05:53:41;;;;;;;11.50;2.53;;;7.10;99.90;;;;;;4964052;23;20658;-94
2022/02/15 05:56:30;;;;;;;;;;;;;;;;;;;;;
2022/02/15 05:59:40;;;;;;;7.33;2.70;;;7.00;99.90;;;;;;4964854;23;20699;-95
2022/02/15 06:02:14;;;;;;;9.73;2.07;;;6.90;99.90;;;;;;5054080;23;20161;-95
2022/02/15 06:07:53;;;;;;;;;;;;;;;;;;;;;
2022/02/15 06:10:43;;;;;;;4.80;1.50;;;6.80;99.90;;;;;;5123422;23;20709;-95
2022/02/15 06:15:46;;;;;;;9.50;2.23;;;6.60;99.90;;;;;;5010134;23;20163;-94
2022/02/15 06:18:34;;;;;;;9.00;1.70;;;6.60;99.90;;;;;;5035388;23;20151;-94
2022/02/15 06:21:12;;;;;;;7.33;1.70;;;6.60;99.90;;;;;;5032790;23;20202;-95
2022/02/15 06:24:47;;;;;;;;;;;;;;;;;;;;;
2022/02/15 06:27:41;;;;;;;6.00;1.60;;;6.70;99.90;;;;;;5007645;23;20867;-96
2022/02/15 06:30:27;;;;;;;11.27;1.80;;;6.90;99.90;;;;;;5035948;23;20169;-95
2022/02/15 06:33:14;;;;;;;8.77;1.57;;;6.80;99.90;;;;;;4964056;23;20176;-95
2022/02/15 11:08:10;;;;;;;8.90;1.58;;;10.30;99.90;;;;;;5148109;22;20683;-93
2022/02/15 11:10:30;;;;;;;8.65;1.15;;;10.40;99.90;;;;;;5124243;23;20231;-94
2022/02/15 11:12:50;;;;;;;9.50;1.58;;;10.30;99.90;;;;;;5154190;23;20612;-96
2022/02/15 11:14:52;;;;;;;7.88;1.25;;;10.20;99.90;;;;;;5165892;23;20162;-95
2022/02/15 11:16:53;;;;;;;11.75;1.60;;;10.20;99.90;;;;;;5147828;23;20255;-90
2022/02/15 11:18:54;;;;;;;11.32;1.48;;;10.10;99.90;;;;;;5144805;23;20158;-91
2022/02/15 11:20:56;;;;;;;10.55;1.25;;;10.30;99.90;;;;;;5171411;23;20194;-92
2022/02/15 11:22:59;;;;;;;14.93;1.73;;;10.50;99.90;;;;;;5169408;23;20171;-90
2022/02/15 11:25:03;;;;;;;11.45;1.40;;;10.60;99.90;;;;;;5169980;22;20217;-90
2022/02/15 11:27:14;;;;;;;10.55;1.25;;;10.20;99.90;;;;;;5174740;23;20150;-90
2022/02/15 11:29:20;;;;;;;11.35;1.90;;;10.10;99.90;;;;;;5146906;23;20209;-90
2022/02/15 11:31:24;;;;;;;10.65;1.55;;;10.30;99.90;;;;;;5120877;23;20179;-90
2022/02/15 11:33:52;;;;;;;12.13;2.15;;;10.40;99.90;;;;;;5173676;23;20597;-93
2022/02/15 11:36:05;;;;;;;8.43;1.48;;;10.30;99.90;;;;;;5141849;23;20219;-92
2022/02/15 11:38:09;;;;;;;8.00;1.60;;;10.40;99.90;;;;;;5145794;23;20152;-90
2022/02/15 11:40:13;;;;;;;10.88;1.73;;;10.60;99.90;;;;;;5146401;23;20549;-90
2022/02/15 11:42:16;;;;;;;12.70;1.70;;;10.50;99.90;;;;;;5147421;23;20156;-90
2022/02/15 11:44:32;;;;;;;13.40;1.50;;;10.60;99.90;;;;;;5149085;23;20167;-91
2022/02/15 11:46:35;;;;;;;12.83;1.57;;;10.40;99.90;;;;;;5146580;23;20158;-91
2022/02/15 11:48:41;;;;;;;8.43;1.33;;;10.40;99.90;;;;;;5172923;22;20152;-95
2022/02/15 11:50:54;;;;;;;11.25;1.67;;;10.60;99.90;;;;;;5148075;23;20147;-94
2022/02/15 11:52:57;;;;;;;8.43;1.53;;;10.60;99.90;;;;;;5173871;23;20589;-92
2022/02/15 11:55:06;;;;;;;11.82;2.03;;;10.80;99.90;;;;;;5146988;23;20514;-95
2022/02/15 11:57:08;;;;;;;9.70;1.67;;;10.80;99.90;;;;;;5173617;23;20158;-90
2022/02/15 11:59:18;;;;;;;9.20;1.50;;;11.00;99.90;;;;;;5151075;23;20143;-90
2022/02/15 12:01:29;;;;;;;11.43;1.30;;;11.10;99.90;;;;;;5149964;23;20159;-94
2022/02/15 12:03:31;;;;;;;11.40;1.10;;;10.80;99.90;;;;;;5201739;22;20153;-91
2022/02/15 12:05:37;;;;;;;11.90;1.08;;;10.60;99.90;;;;;;5149236;23;20143;-92
2022/02/15 12:07:39;;;;;;;8.70;1.35;;;10.70;99.90;;;;;;5175015;23;20158;-91
2022/02/15 12:09:40;;;;;;;13.73;1.30;;;11.00;99.90;;;;;;5150270;23;20213;-90
2022/02/15 12:11:46;;;;;;;6.18;1.00;;;11.20;99.90;;;;;;5176344;22;20218;-94
2022/02/15 12:13:47;;;;;;;14.30;1.40;;;11.10;99.90;;;;;;5147543;23;20241;-93
2022/02/15 12:15:50;;;;;;;10.38;1.80;;;11.00;99.90;;;;;;5149196;23;20147;-90
2022/02/15 12:17:51;;;;;;;7.85;1.33;;;11.10;99.90;;;;;;5200634;22;20187;-91
2022/02/15 12:19:57;;;;;;;14.45;1.58;;;10.90;99.90;;;;;;5150655;23;20182;-95
2022/02/15 12:22:01;;;;;;;10.30;1.85;;;10.80;99.90;;;;;;5151310;23;20159;-92
2022/02/15 12:24:02;;;;;;;11.70;1.55;;;10.80;99.90;;;;;;5173514;22;20174;-89
2022/02/15 12:26:13;;;;;;;10.77;2.10;;;10.90;99.90;;;;;;5154711;23;20166;-91
2022/02/15 12:28:25;;;;;;;11.82;1.88;;;11.00;99.90;;;;;;5175841;23;20159;-91
2022/02/15 12:30:25;;;;;;;11.38;1.50;;;10.90;99.90;;;;;;5179035;23;20171;-91
2022/02/15 12:32:31;;;;;;;12.30;1.38;;;10.90;99.90;;;;;;5178145;23;20147;-95
2022/02/15 12:34:33;;;;;;;9.55;1.20;;;10.90;99.90;;;;;;5150643;23;20187;-90
2022/02/15 12:36:33;;;;;;;8.38;1.20;;;11.00;99.90;;;;;;5175399;23;20147;-95
2022/02/15 12:38:42;;;;;;;12.13;1.70;;;10.90;99.90;;;;;;5173693;23;20220;-89
2022/02/15 12:40:45;;;;;;;5.38;1.23;;;10.90;99.90;;;;;;5177240;23;20182;-90
2022/02/15 12:42:47;;;;;;;12.45;1.73;;;10.80;99.90;;;;;;5153338;23;20154;-92
2022/02/15 12:45:05;;;;;;;13.63;1.52;;;10.90;99.90;;;;;;5176431;22;20181;-90
2022/02/15 12:47:07;;;;;;;7.40;1.05;;;10.80;99.90;;;;;;5203940;22;20156;-90
2022/02/15 12:49:08;;;;;;;16.20;1.80;;;10.90;99.90;;;;;;5149324;23;20151;-91
2022/02/15 12:51:09;;;;;;;14.50;1.85;;;11.10;99.90;;;;;;5182764;23;20154;-90
2022/02/15 12:53:11;;;;;;;15.63;1.55;;;11.30;99.90;;;;;;5152535;23;20162;-90
2022/02/15 12:55:14;;;;;;;11.38;1.42;;;11.20;99.90;;;;;;5179773;22;20193;-91
2022/02/15 12:57:17;;;;;;;12.38;1.42;;;11.10;99.90;;;;;;5153872;23;20183;-91
2022/02/15 12:59:24;;;;;;;11.32;1.20;;;11.10;99.90;;;;;;5176541;23;20161;-89
2022/02/15 13:01:27;;;;;;;5.55;1.02;;;11.00;99.90;;;;;;5174947;23;20185;-92
2022/02/15 13:03:33;;;;;;;2.13;0.77;;;10.70;99.90;;;;;;5149923;23;20154;-91
2022/02/15 13:05:51;;;;;;;7.55;1.80;;;10.70;99.90;;;;;;5182802;23;20155;-92
2022/02/15 13:08:36;;;;;;;10.10;1.58;;;10.60;99.90;;;;;;5182123;23;20237;-92
2022/02/15 13:10:39;;;;;;;14.35;1.65;;;10.60;99.90;;;;;;5204342;22;20162;-91
2022/02/15 13:12:39;;;;;;;7.70;1.42;;;10.60;99.90;;;;;;5155908;23;20171;-92
2022/02/15 13:14:54;;;;;;;8.07;1.13;;;10.60;99.90;;;;;;5174444;22;20639;-95
2022/02/15 13:16:57;;;;;;;14.02;1.20;;;10.60;99.90;;;;;;5149167;23;20148;-91
2022/02/15 13:19:03;;;;;;;7.05;1.15;;;10.60;99.90;;;;;;5176599;23;20226;-96
2022/02/15 13:21:03;;;;;;;12.18;1.20;;;10.70;99.90;;;;;;5173758;23;20198;-91
2022/02/15 13:23:07;;;;;;;10.13;1.58;;;10.70;99.90;;;;;;5148213;23;20160;-93
2022/02/15 13:25:07;;;;;;;8.27;1.33;;;10.90;99.90;;;;;;5175155;22;20175;-94
2022/02/15 13:27:08;;;;;;;14.80;2.20;;;10.90;99.90;;;;;;5173642;23;20585;-94
2022/02/15 13:29:23;;;;;;;6.07;1.08;;;10.90;99.90;;;;;;5150342;23;20234;-95
2022/02/15 13:31:24;;;;;;;9.48;1.55;;;11.00;99.90;;;;;;5176240;23;20143;-92
2022/02/15 13:33:24;;;;;;;12.20;1.83;;;10.90;99.90;;;;;;5178659;23;20201;-92
2022/02/15 13:35:25;;;;;;;12.75;1.77;;;10.80;99.90;;;;;;5201948;22;20171;-91
2022/02/15 13:37:38;;;;;;;10.75;1.65;;;10.80;99.90;;;;;;5173482;23;20143;-90
2022/02/15 13:39:39;;;;;;;14.85;1.35;;;10.90;99.90;;;;;;5171768;23;20244;-90
2022/02/15 13:41:39;;;;;;;10.20;1.40;;;10.90;99.90;;;;;;5170605;23;20154;-92
2022/02/15 13:43:52;;;;;;;10.77;1.65;;;10.80;99.90;;;;;;5148360;23;20186;-93
2022/02/15 13:45:53;;;;;;;7.15;1.13;;;10.80;99.90;;;;;;5147427;23;20178;-90
2022/02/15 13:47:56;;;;;;;17.63;2.10;;;10.70;99.90;;;;;;5172643;22;20208;-90
2022/02/15 13:49:58;;;;;;;10.32;1.65;;;10.50;99.90;;;;;;5172866;23;20151;-94
2022/02/15 13:51:59;;;;;;;13.77;1.60;;;10.60;99.90;;;;;;5172752;23;20161;-93
2022/02/15 13:54:01;;;;;;;11.75;1.58;;;10.70;99.90;;;;;;5149069;23;20168;-93
2022/02/15 13:56:05;;;;;;;15.07;2.30;;;10.70;99.90;;;;;;5147107;23;20217;-90
2022/02/15 13:58:06;;;;;;;19.95;1.77;;;10.90;99.90;;;;;;5148086;23;20163;-91
2022/02/15 14:00:11;;;;;;;15.90;1.63;;;11.00;99.90;;;;;;5149175;23;20263;-91
2022/02/15 14:02:14;;;;;;;11.48;1.50;;;10.90;99.90;;;;;;5175124;23;20185;-90
2022/02/15 14:04:15;;;;;;;9.40;1.80;;;10.80;99.90;;;;;;5154275;23;20172;-94
2022/02/15 14:06:21;;;;;;;12.18;1.50;;;10.60;99.90;;;;;;5204325;22;20170;-89
2022/02/15 14:08:28;;;;;;;10.27;1.50;;;10.60;99.90;;;;;;5176389;23;20209;-91
2022/02/15 14:10:30;;;;;;;13.18;1.85;;;10.70;99.90;;;;;;5152521;23;20224;-90
2022/02/15 14:12:37;;;;;;;11.45;1.65;;;10.90;99.90;;;;;;5155797;23;20162;-92
2022/02/15 14:14:40;;;;;;;11.20;1.75;;;10.80;99.90;;;;;;5175778;22;20568;-93
2022/02/15 14:16:41;;;;;;;9.32;1.48;;;10.60;99.90;;;;;;5178895;23;20139;-93
2022/02/15 14:18:44;;;;;;;8.68;2.03;;;10.60;99.90;;;;;;5154639;23;20158;-94
2022/02/15 14:20:46;;;;;;;12.18;1.58;;;10.60;99.90;;;;;;5181132;23;20186;-91
2022/02/15 14:22:47;;;;;;;11.18;1.55;;;10.60;99.90;;;;;;5147680;23;20163;-94
2022/02/15 14:24:48;;;;;;;7.80;1.52;;;10.50;99.90;;;;;;5146598;23;20767;-90
2022/02/15 14:26:49;;;;;;;11.23;1.58;;;10.40;99.90;;;;;;5202678;22;20146;-91
2022/02/15 14:28:50;;;;;;;8.18;1.95;;;10.30;99.90;;;;;;5152166;23;20238;-89
2022/02/15 14:30:55;;;;;;;12.43;1.77;;;10.30;99.90;;;;;;5172700;23;20162;-91
2022/02/15 14:32:58;;;;;;;16.70;1.65;;;10.30;99.90;;;;;;5172728;23;20147;-90
2022/02/15 14:34:59;;;;;;;11.77;1.58;;;10.40;99.90;;;;;;5198291;22;20208;-91
2022/02/15 14:37:01;;;;;;;8.60;0.95;;;10.40;99.90;;;;;;5145076;23;20315;-91
2022/02/15 14:39:02;;;;;;;5.63;1.30;;;10.30;99.90;;;;;;5148165;23;20158;-90
2022/02/15 14:41:03;;;;;;;7.68;1.00;;;10.30;99.90;;;;;;5196647;22;20189;-90
2022/02/15 14:43:04;;;;;;;7.60;1.15;;;10.30;99.90;;;;;;5145539;23;20221;-90
2022/02/15 14:45:07;;;;;;;7.55;1.50;;;10.20;99.90;;;;;;5146191;23;20178;-90
2022/02/15 14:47:09;;;;;;;7.13;0.98;;;10.40;99.90;;;;;;5145642;23;20151;-89
2022/02/15 14:49:11;;;;;;;11.93;1.58;;;10.30;99.90;;;;;;5170910;22;20155;-91
2022/02/15 14:51:12;;;;;;;10.75;1.52;;;10.30;99.90;;;;;;5146493;23;20151;-95
2022/02/15 14:53:13;;;;;;;5.82;1.00;;;10.40;99.90;;;;;;5196965;22;20180;-94
2022/02/15 14:55:16;;;;;;;9.57;1.25;;;10.40;99.90;;;;;;5145889;23;20164;-89
2022/02/15 14:57:19;;;;;;;11.65;1.55;;;10.40;99.90;;;;;;5171387;23;20146;-90
2022/02/15 14:59:20;;;;;;;10.03;1.23;;;10.20;99.90;;;;;;5144561;23;20155;-90
2022/02/15 15:01:21;;;;;;;10.38;1.55;;;10.20;99.90;;;;;;5148312;23;20152;-91
2022/02/15 15:03:21;;;;;;;12.13;1.63;;;10.30;99.90;;;;;;5147602;23;20171;-89
2022/02/15 15:05:23;;;;;;;11.52;1.25;;;10.30;99.90;;;;;;5198384;22;20194;-90
2022/02/15 15:07:25;;;;;;;9.43;1.30;;;10.30;99.90;;;;;;5145802;23;20668;-92
2022/02/15 15:09:27;;;;;;;3.65;0.70;;;10.40;99.90;;;;;;5197255;22;20545;-94
2022/02/15 15:11:28;;;;;;;13.18;1.60;;;10.20;99.90;;;;;;5144270;23;20246;-91
2022/02/15 15:13:28;;;;;;;12.25;1.55;;;10.20;99.90;;;;;;5169709;23;20578;-90
2022/02/15 15:15:31;;;;;;;9.55;1.35;;;10.30;99.90;;;;;;5148183;23;20167;-95
2022/02/15 15:17:34;;;;;;;4.97;1.10;;;10.20;99.90;;;;;;5170166;23;20652;-90
2022/02/15 15:19:36;;;;;;;8.93;1.40;;;10.30;99.90;;;;;;5172115;23;20178;-94
2022/02/15 15:21:36;;;;;;;7.72;1.25;;;10.20;99.90;;;;;;5146709;23;20469;-94
2022/02/15 15:23:38;;;;;;;9.47;1.27;;;10.10;99.90;;;;;;5146770;23;20154;-90
2022/02/15 15:25:39;;;;;;;7.80;1.35;;;10.20;99.90;;;;;;5171758;23;20163;-90
2022/02/15 15:27:40;;;;;;;9.90;1.50;;;10.10;99.90;;;;;;5148592;23;20148;-93
2022/02/15 15:29:42;;;;;;;9.35;1.10;;;10.10;99.90;;;;;;5170260;23;20151;-89
2022/02/15 15:31:45;;;;;;;10.38;1.15;;;10.10;99.90;;;;;;5147869;23;20155;-94
2022/02/15 15:33:46;;;;;;;11.93;1.52;;;10.00;99.90;;;;;;5149336;23;20155;-95
2022/02/15 15:35:47;;;;;;;19.42;1.83;;;10.00;99.90;;;;;;5173430;23;20151;-93
2022/02/15 15:37:50;;;;;;;10.98;1.80;;;10.00;99.90;;;;;;5172888;22;20578;-90
2022/02/15 15:39:52;;;;;;;11.37;2.00;;;10.00;99.90;;;;;;5150075;23;20186;-91
2022/02/15 15:41:54;;;;;;;13.20;1.30;;;10.00;99.90;;;;;;5171624;23;20151;-92
2022/02/15 15:43:56;;;;;;;9.18;1.27;;;9.90;99.90;;;;;;5150924;23;20191;-94
2022/02/15 15:45:56;;;;;;;10.70;1.05;;;9.90;99.90;;;;;;5148076;23;20144;-91
2022/02/15 15:47:57;;;;;;;13.17;1.47;;;9.70;99.90;;;;;;5198667;22;20544;-92
2022/02/15 15:49:59;;;;;;;14.07;1.65;;;9.60;99.90;;;;;;5144357;23;20147;-91
2022/02/15 15:52:00;;;;;;;8.73;1.10;;;9.60;99.90;;;;;;5168565;23;20201;-94
2022/02/15 15:54:02;;;;;;;11.75;1.40;;;9.60;99.90;;;;;;5144583;23;20630;-93
2022/02/15 15:56:02;;;;;;;8.17;1.40;;;9.40;99.90;;;;;;5170003;23;20155;-92
2022/02/15 15:58:04;;;;;;;8.48;1.80;;;9.40;99.90;;;;;;5145911;23;20159;-90
2022/02/15 16:00:05;;;;;;;6.13;1.10;;;9.30;99.90;;;;;;5145306;23;20718;-95
2022/02/15 16:02:13;;;;;;;9.77;1.20;;;9.30;99.90;;;;;;5172093;23;20212;-95
2022/02/15 16:04:14;;;;;;;13.80;1.40;;;9.30;99.90;;;;;;5147057;23;20181;-93
2022/02/15 16:06:15;;;;;;;11.50;1.50;;;9.30;99.90;;;;;;5196904;22;20143;-93
2022/02/15 16:08:16;;;;;;;11.93;1.60;;;9.20;99.90;;;;;;5145879;23;20159;-94
2022/02/15 16:10:21;;;;;;;15.17;1.40;;;9.20;99.90;;;;;;5171579;23;20218;-92
2022/02/15 16:12:22;;;;;;;11.00;1.47;;;9.20;99.90;;;;;;5171106;23;20182;-95
2022/02/15 16:14:23;;;;;;;11.13;1.23;;;9.10;99.90;;;;;;5169980;22;20619;-91
2022/02/15 16:16:23;;;;;;;15.87;1.53;;;9.00;99.90;;;;;;5147612;23;20210;-94
2022/02/15 16:18:24;;;;;;;9.83;1.10;;;9.10;99.90;;;;;;5176838;23;20147;-94
2022/02/15 16:20:25;;;;;;;10.83;1.03;;;9.10;99.90;;;;;;5148159;23;20273;-90
2022/02/15 16:22:26;;;;;;;9.10;1.63;;;9.00;99.90;;;;;;5173605;22;20151;-93
2022/02/15 16:24:29;;;;;;;7.60;2.23;;;9.00;99.90;;;;;;5146939;23;20171;-95
2022/02/15 16:26:34;;;;;;;14.43;1.33;;;9.00;99.90;;;;;;5150015;23;20151;-92
2022/02/15 16:28:36;;;;;;;14.17;1.70;;;9.10;99.90;;;;;;5125207;23;20152;-92
2022/02/15 16:30:42;;;;;;;11.95;1.75;;;9.00;99.90;;;;;;5200499;22;20147;-92
2022/02/15 16:32:44;;;;;;;16.77;1.93;;;9.00;99.90;;;;;;5174350;23;20222;-95
2022/02/15 16:34:47;;;;;;;8.20;1.40;;;9.00;99.90;;;;;;5150191;23;20175;-93
2022/02/15 16:36:48;;;;;;;8.33;1.57;;;9.00;99.90;;;;;;5173393;23;20151;-94
2022/02/15 16:38:50;;;;;;;11.20;1.37;;;9.00;99.90;;;;;;5151243;23;20203;-95
2022/02/15 16:40:51;;;;;;;13.27;1.33;;;9.00;99.90;;;;;;5201869;22;20202;-95
2022/02/15 16:42:53;;;;;;;12.67;1.67;;;8.90;99.90;;;;;;5175053;23;20143;-95
2022/02/15 16:44:54;;;;;;;8.53;1.50;;;8.90;99.90;;;;;;5150618;23;20179;-96
2022/02/15 16:46:58;;;;;;;13.20;1.60;;;8.90;99.90;;;;;;5150096;23;20152;-92
2022/02/15 16:49:02;;;;;;;9.93;1.30;;;8.80;99.90;;;;;;5151107;23;20159;-95
2022/02/15 16:51:03;;;;;;;9.37;1.57;;;8.70;99.90;;;;;;5180350;23;20175;-94
2022/02/15 16:53:07;;;;;;;9.73;1.37;;;8.60;99.90;;;;;;5204237;22;20152;-95
2022/02/15 16:55:11;;;;;;;14.87;1.50;;;8.60;99.90;;;;;;5203310;22;20192;-95
2022/02/15 16:57:16;;;;;;;7.63;1.50;;;8.60;99.90;;;;;;5206756;22;20178;-95
2022/02/15 16:59:18;;;;;;;11.47;1.10;;;8.50;99.90;;;;;;5156203;23;20186;-91
2022/02/15 17:01:21;;;;;;;9.87;1.30;;;8.50;99.90;;;;;;5180822;23;20222;-95
2022/02/15 17:03:22;;;;;;;9.90;1.67;;;8.50;99.90;;;;;;5156704;23;20144;-93
2022/02/15 17:05:30;;;;;;;5.53;1.20;;;8.50;99.90;;;;;;5178123;23;20157;-92
2022/02/15 17:46:30;;;;;;;9.37;1.60;;;8.30;99.90;;;;;;5136758;23;20176;-95
2022/02/15 18:00:14;;;;;;;7.00;1.90;;;8.30;99.90;;;;;;5146446;22;20268;-90
2022/02/15 18:02:41;;;;;;;7.73;1.90;;;8.30;99.90;;;;;;5150711;23;20156;-95
2022/02/15 18:04:43;;;;;;;13.17;1.70;;;8.40;99.90;;;;;;5131431;23;20637;-95
2022/02/15 18:06:49;;;;;;;13.33;2.00;;;8.40;99.90;;;;;;5181159;23;20147;-95
2022/02/15 18:08:53;;;;;;;5.80;1.50;;;8.40;99.90;;;;;;5176926;23;20155;-96
2022/02/15 18:10:57;;;;;;;10.87;2.13;;;8.40;99.90;;;;;;5179889;23;20166;-95
2022/02/15 18:13:01;;;;;;;20.00;2.00;;;8.40;99.90;;;;;;5174192;23;20242;-96
2022/02/15 18:15:10;;;;;;;12.33;1.90;;;8.50;99.90;;;;;;5154797;23;20167;-95
2022/02/15 18:17:27;;;;;;;7.43;1.57;;;8.50;99.90;;;;;;5158981;22;20151;-94
2022/02/15 18:19:30;;;;;;;11.83;2.50;;;8.50;99.90;;;;;;5179008;22;20150;-95
2022/02/15 18:21:34;;;;;;;10.13;2.17;;;8.50;99.90;;;;;;5154668;23;20241;-93
2022/02/15 18:23:42;;;;;;;13.87;2.23;;;8.50;99.90;;;;;;5179238;22;20143;-94
2022/02/15 18:25:46;;;;;;;8.13;2.00;;;8.50;99.90;;;;;;5150990;23;20148;-95
2022/02/15 18:28:11;;;;;;;9.40;2.10;;;8.40;99.90;;;;;;5175864;22;20151;-95
2022/02/15 18:30:20;;;;;;;9.63;1.73;;;8.50;99.90;;;;;;5182491;22;20163;-94
2022/02/15 18:32:39;;;;;;;8.57;1.67;;;8.50;99.90;;;;;;5179243;22;20185;-93
2022/02/15 18:34:51;;;;;;;8.47;1.67;;;8.40;99.90;;;;;;5178481;22;20151;-94
2022/02/15 18:36:53;;;;;;;9.73;1.80;;;8.50;99.90;;;;;;5158856;22;20149;-94
2022/02/15 18:38:56;;;;;;;10.87;2.20;;;8.40;99.90;;;;;;5178546;23;20147;-94
2022/02/15 18:41:00;;;;;;;11.87;2.30;;;8.30;99.90;;;;;;5176127;23;20240;-95
2022/02/15 18:43:12;;;;;;;11.67;2.10;;;8.40;99.90;;;;;;5182831;23;20134;-96
2022/02/15 18:45:28;;;;;;;9.80;1.83;;;8.40;99.90;;;;;;5178295;23;20179;-95
2022/02/15 18:47:30;;;;;;;10.87;2.37;;;8.50;99.90;;;;;;5177820;22;20549;-95
2022/02/15 18:49:36;;;;;;;5.10;1.40;;;8.50;99.90;;;;;;5206442;22;20154;-94
2022/02/15 18:51:50;;;;;;;7.90;1.80;;;8.50;99.90;;;;;;5206099;22;20600;-95
2022/02/15 18:53:55;;;;;;;6.50;1.80;;;8.50;99.90;;;;;;5158968;22;20202;-95
2022/02/15 18:56:02;;;;;;;8.63;2.00;;;8.50;99.90;;;;;;5232944;22;20186;-95
2022/02/15 18:58:07;;;;;;;11.00;2.53;;;8.40;99.90;;;;;;5209041;22;20154;-95
2022/02/15 19:00:33;;;;;;;11.83;2.17;;;8.40;99.90;;;;;;5212642;22;20232;-94
2022/02/15 19:02:43;;;;;;;10.83;2.10;;;8.50;99.90;;;;;;5208068;22;20158;-95
2022/02/15 19:05:11;;;;;;;10.30;2.10;;;8.50;99.90;;;;;;5208244;22;20235;-96
2022/02/15 19:07:18;;;;;;;8.47;2.13;;;8.50;99.90;;;;;;5212263;22;20138;-96
2022/02/15 19:09:21;;;;;;;5.87;1.70;;;8.50;99.90;;;;;;5203671;22;20146;-95
2022/02/15 19:11:39;;;;;;;12.07;2.23;;;8.50;99.90;;;;;;5207249;22;20163;-96
2022/02/15 19:14:08;;;;;;;7.83;1.90;;;8.60;99.90;;;;;;5203644;22;20548;-93
2022/02/15 19:16:25;;;;;;;8.43;1.50;;;8.50;99.90;;;;;;5180703;22;20155;-95
2022/02/15 19:18:34;;;;;;;12.00;2.37;;;8.50;99.90;;;;;;5183695;22;20162;-95
2022/02/15 19:20:38;;;;;;;9.37;1.80;;;8.50;99.90;;;;;;5184643;22;20198;-95
2022/02/15 19:22:41;;;;;;;9.30;1.90;;;8.50;99.90;;;;;;5206847;22;20150;-95
2022/02/15 19:24:48;;;;;;;8.80;2.00;;;8.60;99.90;;;;;;5159311;23;20186;-96
2022/02/15 19:27:08;;;;;;;5.30;1.67;;;8.70;99.90;;;;;;5138784;23;20136;-95
2022/02/15 19:29:30;;;;;;;10.43;1.93;;;8.60;99.90;;;;;;5182867;22;20149;-95
2022/02/15 19:32:06;;;;;;;8.60;1.60;;;8.60;99.90;;;;;;5162531;23;20163;-96
2022/02/15 19:34:39;;;;;;;9.37;2.20;;;8.60;99.90;;;;;;5159619;22;20227;-96
2022/02/15 19:36:46;;;;;;;7.33;1.70;;;8.70;99.90;;;;;;5138057;23;20206;-96
2022/02/15 19:39:05;;;;;;;4.23;0.90;;;8.70;99.90;;;;;;5140797;23;20136;-96
2022/02/15 19:41:09;;;;;;;5.67;1.53;;;8.60;99.90;;;;;;5140302;23;20247;-96
2022/02/15 19:45:51;;;;;;;5.73;1.90;;;8.60;99.90;;;;;;5219802;22;20208;-94
2022/02/15 19:48:04;;;;;;;4.30;1.43;;;8.60;99.90;;;;;;5208529;22;20155;-93
2022/02/15 19:50:05;;;;;;;8.90;1.63;;;8.60;99.90;;;;;;5204797;22;20142;-94
2022/02/15 19:52:29;;;;;;;6.17;1.87;;;8.60;99.90;;;;;;5207410;22;20181;-93
2022/02/15 19:54:49;;;;;;;6.60;2.10;;;8.60;99.90;;;;;;5200606;22;20158;-95
2022/02/15 19:57:06;;;;;;;8.37;2.13;;;8.60;99.90;;;;;;5210400;22;20158;-95
2022/02/15 19:59:13;;;;;;;8.73;1.47;;;8.50;99.90;;;;;;5258325;22;20148;-95
2022/02/15 20:01:18;;;;;;;4.27;1.30;;;8.60;99.90;;;;;;5231953;22;20189;-95
2022/02/15 20:03:29;;;;;;;5.03;1.53;;;8.60;99.90;;;;;;5232630;22;20137;-94
2022/02/15 20:05:46;;;;;;;10.13;2.37;;;8.50;99.90;;;;;;5207403;22;20165;-96
2022/02/15 20:08:37;;;;;;;6.97;2.23;;;8.60;99.90;;;;;;5260631;22;20149;-95
2022/02/15 20:10:52;;;;;;;6.27;1.83;;;8.60;99.90;;;;;;5258873;22;20161;-95
2022/02/15 20:13:20;;;;;;;12.50;2.17;;;8.70;99.90;;;;;;5235031;22;20122;-96
2022/02/15 20:15:36;;;;;;;5.50;1.73;;;8.80;99.90;;;;;;5175669;22;20194;-94
2022/02/15 20:17:40;;;;;;;9.10;1.97;;;8.80;99.90;;;;;;5157367;23;20162;-95
2022/02/15 20:19:57;;;;;;;8.93;2.50;;;8.70;99.90;;;;;;5158424;23;20169;-95
2022/02/15 20:22:05;;;;;;;6.67;2.10;;;8.80;99.90;;;;;;5181152;22;20200;-95
2022/02/15 20:24:37;;;;;;;10.70;2.10;;;8.80;99.90;;;;;;5162629;23;20174;-95
2022/02/15 20:26:51;;;;;;;6.73;1.90;;;8.90;99.90;;;;;;5134319;23;20179;-94
2022/02/15 20:29:33;;;;;;;11.33;2.43;;;8.90;99.90;;;;;;5183617;23;20127;-96
2022/02/15 20:34:12;;;;;;;7.23;2.00;;;8.90;99.90;;;;;;5125612;23;20228;-96
2022/02/15 20:36:32;;;;;;;8.20;2.13;;;8.90;99.90;;;;;;5157544;22;20147;-94
2022/02/15 20:38:35;;;;;;;8.67;2.20;;;8.80;99.90;;;;;;5136285;23;20238;-95
2022/02/15 20:40:36;;;;;;;13.20;5.03;;;8.80;99.90;;;;;;5153038;23;20187;-94
2022/02/15 20:43:12;;;;;;;11.07;4.80;;;8.90;99.90;;;;;;5132206;23;20145;-94
2022/02/15 20:45:48;;;;;;;7.27;1.63;;;8.90;99.90;;;;;;5136172;23;20156;-94
2022/02/15 20:52:16;;;;;;;7.13;2.20;;;9.00;99.90;;;;;;5165783;22;20196;-94
2022/02/15 20:54:33;;;;;;;5.37;2.30;;;9.10;99.90;;;;;;5163802;23;20175;-94
2022/02/15 20:56:36;;;;;;;9.60;2.10;;;9.20;99.90;;;;;;5169365;22;20166;-95
2022/02/15 20:58:45;;;;;;;6.43;2.20;;;9.10;99.90;;;;;;5159170;23;20140;-95
2022/02/15 21:00:48;;;;;;;11.40;2.67;;;9.00;99.90;;;;;;5178195;22;20177;-94